Snyder, Nebraska
Current Conditions -  °F | °C
As of 11:35 PM on Tuesday 21 Oct 2014 (Local Time) from KFET Reporting Station
Clear Clear  
Wind Chill: 59°   Ceiling: Unl
Heat Index: 59°   Visibility: 10mi
Dew Point: 40°   Wind: 8mph
Humidity: 50%   Direction: 110°ESE
Pressure: 30.05"   Gusts: NA
Location:  41.7°N, 96.79°W
Report Text: KFET 220435Z AUTO 11007KT 10SM CLR 15/05 A3005 RMK AO2 T01500045
Loading
Personal Weather Stations






























Interactive Weather Map
Tropical Storm Tracking
New forecast layout! Learn more

10-Day Weather Forecast

Advertisements
Track Severe Weather on mobile